createdAt,value
2023-05-21T00:00:00.065Z,92.90
2023-05-21T00:01:32.767Z,93.02
2023-05-21T00:03:05.090Z,93.11
2023-05-21T00:04:37.304Z,93.27
2023-05-21T00:06:09.518Z,93.19
2023-05-21T00:07:41.852Z,93.37
2023-05-21T00:09:14.185Z,93.35
2023-05-21T00:10:46.571Z,93.18
2023-05-21T00:12:18.694Z,93.36
2023-05-21T00:13:50.988Z,93.49
2023-05-21T00:15:23.116Z,93.27
2023-05-21T00:16:55.283Z,93.22
2023-05-21T00:18:27.495Z,93.42
2023-05-21T00:20:00.465Z,93.31
2023-05-21T00:21:32.764Z,93.27
2023-05-21T00:23:05.699Z,93.14
2023-05-21T00:24:37.843Z,93.24
2023-05-21T00:26:10.291Z,93.17
2023-05-21T00:29:14.474Z,93.33
2023-05-21T00:30:47.815Z,93.36
2023-05-21T00:32:19.819Z,93.26
2023-05-21T00:33:51.947Z,92.79
2023-05-21T00:35:24.109Z,92.46
2023-05-21T00:36:56.225Z,92.35
2023-05-21T00:38:28.321Z,92.55
2023-05-21T00:40:05.694Z,92.72
2023-05-21T00:41:40.626Z,92.66
2023-05-21T00:43:14.784Z,92.61
2023-05-21T00:44:47.046Z,92.82
2023-05-21T00:46:21.968Z,92.83
2023-05-21T00:47:57.322Z,92.87
2023-05-21T00:49:29.763Z,92.88
2023-05-21T00:51:01.992Z,92.82
2023-05-21T00:52:42.203Z,92.73
2023-05-21T00:54:14.794Z,92.73
2023-05-21T00:55:47.253Z,92.60
2023-05-21T00:57:23.096Z,92.36
2023-05-21T00:58:57.613Z,92.48
2023-05-21T01:00:29.978Z,92.62
2023-05-21T01:02:06.471Z,92.83
2023-05-21T01:03:39.010Z,92.90
2023-05-21T01:05:11.478Z,92.67
2023-05-21T01:06:43.576Z,92.57
2023-05-21T01:08:15.782Z,92.81
2023-05-21T01:09:48.090Z,92.75
2023-05-21T01:11:22.005Z,92.75
2023-05-21T01:12:55.793Z,92.76
2023-05-21T01:14:28.009Z,92.96
2023-05-21T01:16:00.662Z,92.63
2023-05-21T01:17:34.652Z,92.51
2023-05-21T01:19:07.900Z,92.69
2023-05-21T01:20:40.715Z,92.95
2023-05-21T01:22:14.704Z,93.06
2023-05-21T01:23:46.853Z,92.77
2023-05-21T01:25:19.180Z,93.15
2023-05-21T01:26:51.349Z,93.26
2023-05-21T01:28:23.776Z,93.01
2023-05-21T01:29:56.331Z,93.05
2023-05-21T01:31:43.600Z,93.04
2023-05-21T01:33:37.782Z,92.78
2023-05-21T01:35:28.663Z,92.38
2023-05-21T01:37:37.641Z,92.33
2023-05-21T01:39:39.577Z,92.01
2023-05-21T01:41:13.540Z,92.15
2023-05-21T01:42:46.305Z,92.01
2023-05-21T01:44:19.414Z,92.39
2023-05-21T01:45:55.379Z,92.55
2023-05-21T01:47:28.016Z,92.55
2023-05-21T01:49:00.389Z,92.60
2023-05-21T01:50:32.917Z,92.58
2023-05-21T01:52:05.584Z,92.39
2023-05-21T01:53:41.168Z,92.58
2023-05-21T01:55:14.118Z,92.84
2023-05-21T01:56:46.532Z,92.67
2023-05-21T01:58:19.307Z,92.61
2023-05-21T01:59:53.765Z,92.41
2023-05-21T02:01:27.482Z,92.38
2023-05-21T02:03:00.122Z,92.21
2023-05-21T02:04:32.317Z,92.50
2023-05-21T02:06:04.596Z,92.56
2023-05-21T02:07:37.936Z,92.45
2023-05-21T02:09:10.114Z,92.48
2023-05-21T02:10:42.576Z,92.65
2023-05-21T02:12:14.698Z,92.74
2023-05-21T02:13:46.970Z,92.70
2023-05-21T02:15:19.751Z,93.12
2023-05-21T02:16:53.053Z,93.04
2023-05-21T02:18:26.780Z,93.10
2023-05-21T02:19:59.294Z,93.25
2023-05-21T02:21:31.627Z,93.27
2023-05-21T02:23:03.776Z,93.18
2023-05-21T02:24:36.077Z,93.49
2023-05-21T02:26:08.195Z,93.97
2023-05-21T02:27:41.216Z,94.30
2023-05-21T02:29:13.354Z,94.36
2023-05-21T02:30:55.212Z,94.09
2023-05-21T02:32:27.516Z,94.45
2023-05-21T02:33:59.658Z,94.55
2023-05-21T02:35:32.698Z,94.62
2023-05-21T02:37:07.868Z,94.53
2023-05-21T02:38:44.057Z,94.80
2023-05-21T02:40:16.432Z,94.64
2023-05-21T02:41:48.524Z,94.89
2023-05-21T02:43:20.905Z,94.92
2023-05-21T02:44:53.328Z,94.92
2023-05-21T02:46:25.640Z,95.10
2023-05-21T02:47:57.870Z,94.82
2023-05-21T02:49:30.068Z,94.91
2023-05-21T02:51:02.386Z,95.04
2023-05-21T02:52:34.696Z,95.03
2023-05-21T02:54:07.213Z,94.72
2023-05-21T02:55:39.498Z,94.64
2023-05-21T02:57:11.917Z,94.74
2023-05-21T02:58:44.126Z,94.91
2023-05-21T03:02:02.103Z,95.08
2023-05-21T03:03:34.385Z,95.02
2023-05-21T03:05:09.443Z,94.98
2023-05-21T03:06:41.639Z,94.91
2023-05-21T03:08:13.841Z,94.89
2023-05-21T03:09:46.243Z,95.04
2023-05-21T03:11:20.294Z,95.32
2023-05-21T03:12:53.941Z,95.18
2023-05-21T03:14:26.113Z,95.34
2023-05-21T03:15:58.280Z,95.57
2023-05-21T03:17:30.448Z,95.52
2023-05-21T03:19:02.850Z,95.65
2023-05-21T03:20:35.174Z,95.40
2023-05-21T03:22:07.708Z,95.29
2023-05-21T03:23:42.203Z,95.47
2023-05-21T03:25:14.418Z,95.41
2023-05-21T03:26:48.636Z,95.48
2023-05-21T03:28:20.911Z,95.55
2023-05-21T03:29:55.461Z,95.31
2023-05-21T03:31:28.062Z,95.24
2023-05-21T03:33:00.436Z,95.48
2023-05-21T03:34:34.779Z,95.51
2023-05-21T03:37:39.855Z,95.52
2023-05-21T03:39:12.020Z,95.56
2023-05-21T03:40:44.178Z,95.63
2023-05-21T03:42:16.447Z,95.66
2023-05-21T03:43:48.651Z,95.69
2023-05-21T03:45:20.906Z,95.46
2023-05-21T03:46:53.078Z,95.40
2023-05-21T03:48:25.201Z,95.24
2023-05-21T03:49:57.583Z,95.43
2023-05-21T03:51:30.941Z,95.36
2023-05-21T03:53:03.002Z,95.15
2023-05-21T03:54:35.165Z,95.36
2023-05-21T03:56:07.591Z,95.51
2023-05-21T03:57:40.228Z,95.62
2023-05-21T03:59:12.365Z,95.66
2023-05-21T04:00:44.574Z,95.47
2023-05-21T04:02:16.752Z,95.56
2023-05-21T04:03:49.119Z,95.40
2023-05-21T04:05:21.700Z,95.61
2023-05-21T04:06:54.795Z,95.90
2023-05-21T04:08:27.407Z,95.87
2023-05-21T04:09:59.621Z,95.90
2023-05-21T04:11:31.868Z,95.90
2023-05-21T04:13:04.078Z,95.94
2023-05-21T04:14:37.988Z,96.30
2023-05-21T04:16:10.319Z,96.21
2023-05-21T04:17:42.543Z,96.32
2023-05-21T04:19:14.825Z,96.20
2023-05-21T04:20:47.034Z,96.45
2023-05-21T04:22:19.184Z,96.55
2023-05-21T04:23:51.284Z,96.88
2023-05-21T04:25:23.727Z,97.05
2023-05-21T04:26:56.511Z,97.09
2023-05-21T04:28:29.180Z,97.47
2023-05-21T04:30:01.373Z,97.85
2023-05-21T04:31:33.675Z,98.11
2023-05-21T04:33:05.959Z,98.53
2023-05-21T04:34:38.262Z,98.73
2023-05-21T04:36:11.037Z,99.11
2023-05-21T04:37:46.257Z,99.55
2023-05-21T04:39:18.372Z,100.00
2023-05-21T04:40:51.374Z,100.00
2023-05-21T04:42:24.650Z,100.00
2023-05-21T04:43:56.851Z,100.00
2023-05-21T04:45:29.857Z,100.00
2023-05-21T04:47:02.683Z,100.00
2023-05-21T04:48:34.997Z,100.00
2023-05-21T04:51:39.016Z,100.00
2023-05-21T04:53:11.882Z,100.00
2023-05-21T04:54:48.354Z,100.00
2023-05-21T04:56:22.266Z,99.84
2023-05-21T04:57:54.458Z,99.71
2023-05-21T04:59:26.656Z,99.78
2023-05-21T05:00:58.915Z,99.67
2023-05-21T05:02:31.133Z,99.84
2023-05-21T05:04:03.340Z,99.97
2023-05-21T05:05:35.714Z,99.95
2023-05-21T05:07:08.087Z,99.97
2023-05-21T05:08:40.244Z,99.87
2023-05-21T05:10:12.605Z,99.92
2023-05-21T05:11:44.833Z,99.85
2023-05-21T05:13:17.123Z,99.11
2023-05-21T05:14:49.258Z,98.43
2023-05-21T05:16:26.076Z,98.37
2023-05-21T05:17:58.487Z,98.30
2023-05-21T05:19:30.795Z,98.46
2023-05-21T05:21:03.081Z,98.28
2023-05-21T05:22:35.184Z,98.17
2023-05-21T05:24:07.469Z,98.09
2023-05-21T05:25:39.817Z,97.61
2023-05-21T05:27:12.075Z,97.50
2023-05-21T05:28:44.262Z,97.48
2023-05-21T05:30:17.096Z,97.40
2023-05-21T05:31:49.317Z,97.51
2023-05-21T05:33:21.507Z,97.71
2023-05-21T05:34:53.875Z,97.64
2023-05-21T05:36:26.795Z,97.71
2023-05-21T05:37:59.005Z,98.11
2023-05-21T05:39:31.353Z,98.30
2023-05-21T05:41:03.631Z,97.96
2023-05-21T05:42:35.856Z,97.65
2023-05-21T05:44:10.747Z,97.21
2023-05-21T05:45:43.150Z,96.79
2023-05-21T05:47:15.359Z,96.11
2023-05-21T05:48:55.388Z,96.24
2023-05-21T05:50:28.112Z,95.88
2023-05-21T05:52:01.583Z,95.85
2023-05-21T05:53:33.886Z,95.75
2023-05-21T05:55:09.317Z,95.54
2023-05-21T05:56:41.487Z,95.31
2023-05-21T05:58:13.763Z,95.14
2023-05-21T05:59:45.989Z,94.92
2023-05-21T06:01:18.375Z,94.99
2023-05-21T06:02:50.648Z,95.49
2023-05-21T06:04:22.893Z,95.62
2023-05-21T06:05:55.373Z,95.52
2023-05-21T06:07:27.545Z,95.26
2023-05-21T06:09:02.166Z,95.44
2023-05-21T06:10:34.323Z,95.38
2023-05-21T06:12:07.760Z,95.41
2023-05-21T06:13:40.755Z,95.33
2023-05-21T06:15:15.283Z,95.10
2023-05-21T06:16:47.451Z,95.34
2023-05-21T06:18:19.610Z,95.27
2023-05-21T06:19:51.750Z,95.60
2023-05-21T06:21:23.951Z,95.63
2023-05-21T06:22:56.158Z,95.37
2023-05-21T06:24:28.304Z,95.37
2023-05-21T06:26:00.490Z,95.32
2023-05-21T06:27:32.631Z,95.27
2023-05-21T06:29:04.879Z,95.02
2023-05-21T06:30:36.999Z,94.26
2023-05-21T06:32:09.614Z,93.76
2023-05-21T06:33:41.963Z,93.67
2023-05-21T06:35:14.216Z,93.65
2023-05-21T06:36:46.405Z,91.59
2023-05-21T06:38:18.598Z,91.03
2023-05-21T06:39:51.058Z,90.87
2023-05-21T06:41:23.570Z,91.19
2023-05-21T06:42:56.812Z,90.67
2023-05-21T06:44:29.074Z,90.65
2023-05-21T06:46:01.956Z,89.99
2023-05-21T06:47:34.214Z,89.76
2023-05-21T06:49:07.571Z,90.58
2023-05-21T06:50:39.757Z,90.33
2023-05-21T06:52:11.944Z,90.24
2023-05-21T06:53:44.122Z,90.77
2023-05-21T06:55:16.305Z,90.67
2023-05-21T06:56:48.566Z,89.93
2023-05-21T06:58:21.969Z,89.54
2023-05-21T06:59:53.928Z,89.65
2023-05-21T07:01:26.722Z,89.63
2023-05-21T07:02:59.003Z,89.68
2023-05-21T07:04:31.171Z,89.73
2023-05-21T07:06:03.357Z,89.59
2023-05-21T07:07:35.823Z,89.34
2023-05-21T07:09:09.489Z,89.28
2023-05-21T07:10:42.798Z,89.64
2023-05-21T07:12:14.756Z,89.19
2023-05-21T07:13:47.097Z,89.31
2023-05-21T07:15:19.269Z,89.61
2023-05-21T07:16:51.385Z,89.65
2023-05-21T07:19:55.488Z,89.28
2023-05-21T07:21:27.815Z,89.26
2023-05-21T07:23:00.054Z,88.97
2023-05-21T07:24:32.234Z,89.15
2023-05-21T07:26:04.389Z,89.49
2023-05-21T07:27:36.670Z,89.46
2023-05-21T07:29:08.884Z,89.04
2023-05-21T07:30:41.079Z,88.24
2023-05-21T07:32:13.296Z,87.56
2023-05-21T07:33:45.600Z,88.34
2023-05-21T07:35:17.864Z,88.42
2023-05-21T07:36:50.010Z,87.74
2023-05-21T07:38:25.164Z,87.97
2023-05-21T07:39:59.138Z,88.03
2023-05-21T07:41:31.527Z,88.30
2023-05-21T07:43:03.630Z,88.04
2023-05-21T07:44:36.006Z,87.49
2023-05-21T07:46:08.228Z,87.27
2023-05-21T07:47:40.439Z,86.66
2023-05-21T07:49:17.111Z,86.85
2023-05-21T07:50:50.224Z,86.68
2023-05-21T07:52:22.612Z,86.13
2023-05-21T07:53:55.356Z,85.54
2023-05-21T07:55:27.845Z,86.14
2023-05-21T07:57:00.029Z,86.36
2023-05-21T07:58:32.936Z,86.29
2023-05-21T08:00:08.812Z,86.45
2023-05-21T08:01:41.575Z,86.85
2023-05-21T08:03:17.697Z,86.18
2023-05-21T08:04:50.116Z,85.28
2023-05-21T08:06:25.297Z,85.60
2023-05-21T08:07:57.600Z,86.01
2023-05-21T08:09:32.830Z,85.60
2023-05-21T08:11:05.113Z,84.95
2023-05-21T08:12:37.279Z,84.34
2023-05-21T08:14:10.438Z,82.10
2023-05-21T08:15:42.790Z,82.64
2023-05-21T08:17:15.026Z,82.26
2023-05-21T08:18:47.380Z,80.19
2023-05-21T08:20:20.935Z,79.07
2023-05-21T08:21:53.263Z,78.63
2023-05-21T08:23:25.681Z,79.97
2023-05-21T08:24:57.829Z,79.91
2023-05-21T08:26:30.042Z,79.92
2023-05-21T08:28:02.259Z,79.40
2023-05-21T08:29:34.873Z,78.49
2023-05-21T08:31:07.155Z,77.50
2023-05-21T08:32:39.451Z,77.22
2023-05-21T08:34:11.709Z,77.15
2023-05-21T08:35:43.916Z,76.37
2023-05-21T08:37:16.181Z,76.31
2023-05-21T08:38:48.461Z,76.15
2023-05-21T08:40:20.753Z,77.24
2023-05-21T08:41:58.491Z,74.34
2023-05-21T08:43:30.705Z,73.28
2023-05-21T08:45:07.501Z,74.22
2023-05-21T08:46:41.805Z,74.24
2023-05-21T08:48:17.729Z,73.96
2023-05-21T08:49:50.889Z,73.50
2023-05-21T08:51:23.120Z,73.06
2023-05-21T08:52:55.864Z,68.50
2023-05-21T08:54:28.525Z,68.62
2023-05-21T08:56:00.797Z,69.07
2023-05-21T08:57:33.326Z,68.74
2023-05-21T08:59:05.493Z,68.51
2023-05-21T09:00:40.391Z,68.48
2023-05-21T09:02:14.143Z,70.16
2023-05-21T09:03:46.676Z,73.35
2023-05-21T09:05:19.049Z,72.12
2023-05-21T09:06:52.296Z,71.59
2023-05-21T09:08:33.406Z,72.18
2023-05-21T09:10:11.248Z,75.95
2023-05-21T09:11:44.128Z,73.17
2023-05-21T09:13:18.085Z,71.54
2023-05-21T09:14:50.368Z,68.35
2023-05-21T09:16:22.587Z,70.60
2023-05-21T09:17:54.818Z,72.71
2023-05-21T09:19:27.240Z,74.68
2023-05-21T09:21:00.386Z,75.87
2023-05-21T09:22:32.615Z,69.80
2023-05-21T09:24:04.987Z,68.48
2023-05-21T09:25:38.818Z,68.39
2023-05-21T09:27:11.332Z,66.78
2023-05-21T09:28:43.863Z,66.12
2023-05-21T09:30:25.311Z,67.20
2023-05-21T09:31:59.959Z,68.64
2023-05-21T09:33:32.177Z,71.43
2023-05-21T09:35:09.979Z,70.92
2023-05-21T09:36:42.271Z,67.77
2023-05-21T09:38:14.628Z,67.88
2023-05-21T09:39:48.263Z,67.00
2023-05-21T09:41:22.422Z,66.69
2023-05-21T09:42:55.582Z,68.05
2023-05-21T09:44:27.832Z,72.35
2023-05-21T09:46:02.096Z,69.40
2023-05-21T09:47:34.657Z,68.61
2023-05-21T09:49:06.916Z,68.38
2023-05-21T09:50:40.614Z,68.19
2023-05-21T09:52:12.838Z,64.46
2023-05-21T09:53:55.495Z,64.60
2023-05-21T09:55:29.304Z,69.75
2023-05-21T09:57:03.246Z,63.46
2023-05-21T09:58:35.679Z,64.98
2023-05-21T10:27:04.407Z,64.83
2023-05-21T10:28:36.473Z,62.80
2023-05-21T10:30:09.172Z,62.91
2023-05-21T10:31:44.264Z,63.46
2023-05-21T10:33:20.006Z,61.35
2023-05-21T10:34:53.928Z,63.40
2023-05-21T10:36:26.579Z,64.62
2023-05-21T10:37:59.689Z,64.32
2023-05-21T10:39:32.902Z,64.07
2023-05-21T10:41:07.833Z,63.47
2023-05-21T10:42:52.925Z,61.18
2023-05-21T10:44:41.386Z,59.78
2023-05-21T10:46:16.168Z,56.58
2023-05-21T10:47:59.250Z,58.29
2023-05-21T10:49:43.356Z,60.73
2023-05-21T10:51:24.929Z,58.83
2023-05-21T10:53:15.555Z,60.99
2023-05-21T10:55:06.632Z,57.47
2023-05-21T10:57:17.962Z,62.77
2023-05-21T10:59:30.433Z,61.13
2023-05-21T11:01:03.176Z,61.19
2023-05-21T11:02:35.537Z,59.18
2023-05-21T11:04:08.067Z,56.76
2023-05-21T11:05:41.963Z,56.12
2023-05-21T11:07:14.295Z,61.09
2023-05-21T11:08:48.491Z,62.04
2023-05-21T11:10:41.200Z,55.17
2023-05-21T11:12:14.153Z,52.17
2023-05-21T11:13:49.797Z,50.93
2023-05-21T11:15:22.148Z,54.35
2023-05-21T11:16:55.131Z,54.71
2023-05-21T11:18:36.165Z,60.72
2023-05-21T11:20:14.681Z,60.58
2023-05-21T11:21:55.906Z,57.84
2023-05-21T11:23:51.178Z,59.37
2023-05-21T11:27:02.172Z,52.21
2023-05-21T11:28:34.943Z,54.80
2023-05-21T11:30:10.854Z,56.22
2023-05-21T11:31:51.700Z,60.23
2023-05-21T11:33:23.855Z,58.56
2023-05-21T11:35:01.088Z,53.16
2023-05-21T11:36:36.167Z,58.53
2023-05-21T11:38:09.897Z,55.63
2023-05-21T11:39:42.063Z,58.12
2023-05-21T11:41:20.666Z,52.87
2023-05-21T11:42:54.656Z,55.24
2023-05-21T11:44:42.995Z,58.08
2023-05-21T11:46:15.313Z,54.79
2023-05-21T11:47:49.579Z,49.41
2023-05-21T11:49:22.699Z,46.79
2023-05-21T11:50:54.988Z,51.02
2023-05-21T11:52:29.882Z,49.60
2023-05-21T11:55:43.957Z,48.18
2023-05-21T11:57:17.630Z,50.57
2023-05-21T11:58:49.834Z,45.16
2023-05-21T12:00:22.154Z,47.78
2023-05-21T12:01:55.665Z,46.49
2023-05-21T12:03:28.055Z,43.21
2023-05-21T12:05:02.974Z,43.31
2023-05-21T12:06:35.156Z,44.86
2023-05-21T12:08:09.176Z,44.59
2023-05-21T12:09:45.460Z,44.49
2023-05-21T12:11:17.719Z,49.71
2023-05-21T12:12:54.930Z,43.39
2023-05-21T12:14:28.600Z,48.18
2023-05-21T12:16:01.231Z,47.20
2023-05-21T12:17:33.570Z,47.33
2023-05-21T12:19:06.719Z,47.20
2023-05-21T12:20:39.381Z,47.16
2023-05-21T12:22:11.527Z,44.95
2023-05-21T12:23:43.712Z,48.40
2023-05-21T12:25:19.784Z,48.14
2023-05-21T12:26:52.517Z,49.28
2023-05-21T12:28:25.133Z,46.45
2023-05-21T12:29:57.695Z,45.73
2023-05-21T12:31:31.518Z,47.14
2023-05-21T12:33:04.972Z,47.05
2023-05-21T12:34:50.966Z,47.65
2023-05-21T12:36:24.119Z,42.70
2023-05-21T12:37:56.244Z,45.05
2023-05-21T12:39:30.641Z,45.31
2023-05-21T12:41:06.458Z,47.05
2023-05-21T12:42:40.526Z,46.55
2023-05-21T12:44:12.763Z,42.56
2023-05-21T12:45:44.989Z,40.03
2023-05-21T12:47:18.247Z,42.81
2023-05-21T12:48:51.924Z,42.75
2023-05-21T12:50:24.158Z,45.08
2023-05-21T12:51:57.341Z,42.73
2023-05-21T12:53:36.835Z,43.66
2023-05-21T12:55:10.795Z,46.78
2023-05-21T12:56:46.330Z,44.15
2023-05-21T12:59:57.092Z,47.42
2023-05-21T13:01:29.267Z,48.15
2023-05-21T13:03:02.356Z,48.00
2023-05-21T13:04:37.072Z,46.99
2023-05-21T13:06:09.589Z,48.10
2023-05-21T13:07:41.726Z,42.89
2023-05-21T13:09:14.007Z,41.09
2023-05-21T13:10:46.431Z,44.32
2023-05-21T13:12:18.576Z,46.15
2023-05-21T13:13:50.737Z,46.46
2023-05-21T13:15:23.029Z,44.36
2023-05-21T13:16:55.645Z,41.89
2023-05-21T13:18:27.945Z,43.20
2023-05-21T13:20:10.501Z,44.85
2023-05-21T13:21:42.832Z,45.49
2023-05-21T13:23:19.700Z,47.96
2023-05-21T13:24:51.807Z,46.90
2023-05-21T13:26:23.968Z,45.45
2023-05-21T13:27:56.582Z,46.40
2023-05-21T13:29:31.443Z,46.79
2023-05-21T13:31:03.667Z,45.37
2023-05-21T13:32:37.093Z,47.36
2023-05-21T13:34:09.337Z,44.80
2023-05-21T13:35:41.692Z,41.21
2023-05-21T13:37:14.065Z,44.03
2023-05-21T13:38:46.372Z,43.54
2023-05-21T13:40:18.935Z,45.23
2023-05-21T13:41:51.161Z,47.70
2023-05-21T13:43:23.375Z,47.10
2023-05-21T13:44:55.563Z,43.68
2023-05-21T13:46:27.935Z,43.85
2023-05-21T13:48:00.312Z,43.63
2023-05-21T13:49:34.253Z,42.37
2023-05-21T13:51:06.656Z,43.33
2023-05-21T13:52:39.452Z,42.13
2023-05-21T13:54:11.604Z,40.88
2023-05-21T13:55:43.737Z,43.00
2023-05-21T14:33:32.550Z,44.60
2023-05-21T14:35:05.396Z,42.09
2023-05-21T14:36:37.552Z,43.60
2023-05-21T14:38:09.911Z,45.05
2023-05-21T14:39:42.114Z,46.80
2023-05-21T14:41:14.223Z,43.85
2023-05-21T14:42:49.484Z,43.65
2023-05-21T14:44:21.639Z,44.55
2023-05-21T14:45:53.932Z,45.10
2023-05-21T14:47:26.286Z,44.50
2023-05-21T14:48:59.893Z,44.63
2023-05-21T14:50:32.234Z,44.37
2023-05-21T14:52:04.645Z,44.25
2023-05-21T14:53:36.891Z,46.13
2023-05-21T14:55:09.648Z,46.58
2023-05-21T14:56:41.867Z,45.00
2023-05-21T14:58:14.073Z,46.55
2023-05-21T14:59:46.313Z,46.39
2023-05-21T15:01:18.949Z,46.65
2023-05-21T15:02:51.308Z,48.00
2023-05-21T15:04:23.630Z,47.08
2023-05-21T15:05:55.909Z,45.56
2023-05-21T15:09:02.093Z,47.58
2023-05-21T15:10:34.231Z,49.33
2023-05-21T15:12:06.547Z,49.83
2023-05-21T15:13:38.971Z,50.09
2023-05-21T15:15:12.843Z,51.17
2023-05-21T15:16:45.411Z,51.63
2023-05-21T15:18:17.906Z,52.07
2023-05-21T15:19:50.101Z,51.51
2023-05-21T15:21:22.497Z,52.06
2023-05-21T15:23:05.042Z,53.57
2023-05-21T15:24:47.023Z,53.90
2023-05-21T15:26:19.365Z,53.91
2023-05-21T15:27:51.640Z,53.65
2023-05-21T15:29:24.290Z,54.10
2023-05-21T15:30:56.611Z,53.52
2023-05-21T15:32:28.853Z,51.62
2023-05-21T15:34:01.350Z,51.25
2023-05-21T15:35:33.987Z,53.38
2023-05-21T15:37:06.535Z,52.68
2023-05-21T15:38:38.674Z,53.79
2023-05-21T15:40:11.088Z,54.14
2023-05-21T15:41:43.206Z,53.30
2023-05-21T15:43:15.549Z,53.90
2023-05-21T15:44:47.740Z,52.13
2023-05-21T15:46:20.105Z,53.29
2023-05-21T15:47:52.599Z,53.48
2023-05-21T15:49:24.866Z,54.07
2023-05-21T15:50:57.114Z,53.97
2023-05-21T15:52:29.449Z,54.80
2023-05-21T15:54:01.713Z,55.53
2023-05-21T15:55:34.222Z,55.31
2023-05-21T15:57:06.689Z,55.41
2023-05-21T15:58:38.961Z,55.23
2023-05-21T16:00:12.009Z,55.48
2023-05-21T16:01:44.290Z,56.34
2023-05-21T16:03:16.982Z,56.05
2023-05-21T16:04:51.972Z,56.69
2023-05-21T16:06:28.379Z,57.38
2023-05-21T16:08:00.876Z,57.92
2023-05-21T16:09:33.145Z,58.13
2023-05-21T16:11:05.446Z,58.57
2023-05-21T16:12:37.590Z,58.79
2023-05-21T16:14:09.877Z,58.77
2023-05-21T16:15:42.093Z,59.45
2023-05-21T16:17:14.494Z,59.16
2023-05-21T16:18:47.009Z,59.70
2023-05-21T16:20:19.301Z,59.55
2023-05-21T16:21:51.618Z,59.16
2023-05-21T16:23:24.271Z,59.15
2023-05-21T16:24:56.765Z,59.07
2023-05-21T16:26:29.168Z,59.71
2023-05-21T16:28:01.392Z,58.62
2023-05-21T16:29:33.590Z,58.95
2023-05-21T16:31:06.009Z,59.76
2023-05-21T16:32:39.993Z,59.91
2023-05-21T16:34:12.290Z,60.01
2023-05-21T16:37:24.549Z,59.43
2023-05-21T16:38:56.947Z,59.50
2023-05-21T16:40:29.085Z,59.80
2023-05-21T16:42:02.137Z,59.46
2023-05-21T16:43:34.273Z,59.57
2023-05-21T16:45:07.337Z,60.47
2023-05-21T16:46:41.030Z,61.06
2023-05-21T16:48:14.044Z,60.04
2023-05-21T16:49:46.662Z,60.99
2023-05-21T16:51:18.940Z,62.49
2023-05-21T16:52:51.120Z,62.54
2023-05-21T16:54:23.307Z,61.17
2023-05-21T16:55:55.504Z,60.25
2023-05-21T16:57:27.687Z,60.57
2023-05-21T16:58:59.854Z,60.14
2023-05-21T17:00:32.047Z,59.59
2023-05-21T17:02:04.525Z,59.09
2023-05-21T17:03:36.973Z,59.10
2023-05-21T17:05:13.636Z,58.58
2023-05-21T17:06:45.803Z,58.73
2023-05-21T17:08:18.105Z,58.15
2023-05-21T17:09:50.306Z,58.16
2023-05-21T17:11:22.628Z,58.16
2023-05-21T17:12:54.977Z,58.10
2023-05-21T17:14:34.347Z,57.67
2023-05-21T17:16:07.779Z,57.42
2023-05-21T17:17:40.025Z,57.20
2023-05-21T17:19:12.315Z,57.13
2023-05-21T17:20:44.670Z,56.83
2023-05-21T17:22:16.926Z,57.04
2023-05-21T17:23:49.130Z,56.44
2023-05-21T17:25:21.421Z,56.87
2023-05-21T17:26:54.212Z,57.22
2023-05-21T17:28:26.359Z,57.27
2023-05-21T17:29:58.572Z,57.81
2023-05-21T17:31:32.674Z,57.71
2023-05-21T17:33:05.001Z,56.66
2023-05-21T17:34:37.599Z,57.14
2023-05-21T17:36:09.908Z,56.88
2023-05-21T17:37:42.123Z,56.85
2023-05-21T17:39:14.387Z,57.21
2023-05-21T17:40:46.667Z,57.26
2023-05-21T17:42:19.186Z,57.77
2023-05-21T17:43:51.480Z,61.81
2023-05-21T17:45:23.814Z,62.71
2023-05-21T17:46:56.997Z,63.07
2023-05-21T17:48:29.268Z,63.29
2023-05-21T17:50:01.451Z,64.91
2023-05-21T17:51:33.695Z,67.72
2023-05-21T17:53:08.998Z,67.99
2023-05-21T17:54:41.663Z,67.69
2023-05-21T17:56:13.893Z,68.94
2023-05-21T17:57:46.461Z,67.86
2023-05-21T17:59:18.633Z,68.61
2023-05-21T18:00:50.910Z,69.60
2023-05-21T18:02:23.989Z,69.60
2023-05-21T18:03:56.351Z,71.39
2023-05-21T18:05:28.529Z,71.34
2023-05-21T18:07:00.911Z,72.00
2023-05-21T18:08:33.043Z,71.92
2023-05-21T18:10:06.274Z,72.10
2023-05-21T18:11:38.478Z,72.90
2023-05-21T18:13:10.776Z,73.17
2023-05-21T18:14:42.968Z,71.87
2023-05-21T18:16:15.226Z,72.31
2023-05-21T18:17:47.714Z,72.41
2023-05-21T18:19:19.962Z,72.75
2023-05-21T18:20:55.945Z,72.74
2023-05-21T18:22:28.073Z,73.41
2023-05-21T18:24:00.321Z,73.58
2023-05-21T18:25:32.570Z,74.03
2023-05-21T18:27:04.912Z,73.74
2023-05-21T18:28:37.125Z,73.92
2023-05-21T18:30:09.775Z,74.70
2023-05-21T18:31:44.694Z,75.32
2023-05-21T18:33:17.183Z,75.35
2023-05-21T18:34:50.195Z,75.98
2023-05-21T18:36:22.875Z,77.18
2023-05-21T18:37:55.107Z,77.25
2023-05-21T18:39:28.407Z,76.88
2023-05-21T18:41:00.600Z,77.81
2023-05-21T18:42:32.748Z,78.11
2023-05-21T18:44:06.383Z,78.45
2023-05-21T18:45:38.566Z,78.04
2023-05-21T18:47:16.159Z,77.89
2023-05-21T18:48:49.189Z,78.21
2023-05-21T18:50:21.394Z,78.29
2023-05-21T18:51:53.947Z,77.91
2023-05-21T18:53:26.095Z,78.02
2023-05-21T18:54:58.346Z,78.09
2023-05-21T18:56:30.494Z,78.18
2023-05-21T18:58:02.752Z,78.34
2023-05-21T18:59:35.057Z,78.19
2023-05-21T19:01:07.664Z,78.43
2023-05-21T19:02:40.636Z,78.52
2023-05-21T19:04:13.182Z,78.68
2023-05-21T19:05:45.550Z,78.37
2023-05-21T19:07:17.758Z,78.41
2023-05-21T19:08:49.871Z,79.14
2023-05-21T19:10:22.313Z,78.87
2023-05-21T19:11:54.563Z,78.32
2023-05-21T19:13:26.760Z,78.79
2023-05-21T19:14:58.934Z,78.92
2023-05-21T19:16:31.413Z,78.89
2023-05-21T19:18:04.087Z,79.48
2023-05-21T19:19:36.430Z,79.03
2023-05-21T19:21:08.656Z,79.04
2023-05-21T19:22:41.045Z,79.53
2023-05-21T19:24:13.249Z,79.82
2023-05-21T19:25:45.453Z,79.86
2023-05-21T19:27:18.556Z,79.97
2023-05-21T19:28:54.919Z,80.12
2023-05-21T19:30:27.398Z,80.30
2023-05-21T19:31:59.629Z,80.77
2023-05-21T19:33:31.964Z,80.87
2023-05-21T19:35:06.006Z,81.36
2023-05-21T19:36:51.506Z,81.71
2023-05-21T19:38:24.982Z,81.66
2023-05-21T19:39:57.302Z,81.49
2023-05-21T19:41:29.590Z,81.95
2023-05-21T19:43:03.145Z,82.34
2023-05-21T19:44:35.729Z,82.34
2023-05-21T19:46:08.021Z,82.74
2023-05-21T19:47:41.465Z,82.80
2023-05-21T19:49:14.955Z,82.80
2023-05-21T19:50:49.781Z,82.84
2023-05-21T19:52:21.916Z,82.79
2023-05-21T19:53:54.106Z,82.48
2023-05-21T19:55:26.941Z,82.87
2023-05-21T19:56:59.184Z,82.83
2023-05-21T19:58:32.048Z,82.90
2023-05-21T20:00:05.757Z,83.29
2023-05-21T20:01:39.786Z,83.59
2023-05-21T20:03:13.334Z,83.59
2023-05-21T20:04:45.813Z,83.51
2023-05-21T20:06:19.330Z,83.66
2023-05-21T20:07:51.608Z,83.90
2023-05-21T20:09:23.855Z,83.85
2023-05-21T20:10:56.373Z,83.84
2023-05-21T20:12:28.552Z,83.90
2023-05-21T20:14:02.493Z,84.26
2023-05-21T20:15:34.920Z,84.25
2023-05-21T20:17:07.471Z,84.38
2023-05-21T20:18:39.761Z,84.39
2023-05-21T20:20:12.876Z,84.60
2023-05-21T20:21:45.179Z,84.98
2023-05-21T20:23:17.367Z,85.20
2023-05-21T20:24:49.558Z,85.47
2023-05-21T20:26:22.399Z,85.31
2023-05-21T20:27:54.569Z,85.43
2023-05-21T20:29:26.925Z,85.53
2023-05-21T20:30:59.125Z,85.41
2023-05-21T20:32:31.458Z,85.16
2023-05-21T20:34:08.078Z,85.38
2023-05-21T20:35:40.234Z,84.97
2023-05-21T20:37:12.922Z,84.83
2023-05-21T20:38:46.011Z,85.13
2023-05-21T20:40:19.325Z,85.28
2023-05-21T20:41:51.484Z,85.52
2023-05-21T20:43:25.960Z,85.46
2023-05-21T20:45:02.145Z,85.83
2023-05-21T20:46:38.913Z,85.78
2023-05-21T20:48:12.470Z,85.68
2023-05-21T20:49:46.035Z,85.79
2023-05-21T20:51:18.245Z,85.96
2023-05-21T20:52:50.427Z,86.11
2023-05-21T20:54:22.563Z,86.17
2023-05-21T20:55:55.089Z,86.05
2023-05-21T20:57:28.744Z,86.55
2023-05-21T20:59:01.015Z,86.47
2023-05-21T21:00:33.732Z,86.80
2023-05-21T21:02:12.727Z,86.72
2023-05-21T21:05:17.736Z,86.87
2023-05-21T21:06:50.719Z,87.29
2023-05-21T21:08:22.813Z,87.31
2023-05-21T21:09:57.461Z,87.42
2023-05-21T21:11:29.737Z,87.57
2023-05-21T21:13:02.350Z,87.61
2023-05-21T21:14:34.435Z,87.78
2023-05-21T21:16:07.344Z,87.90
2023-05-21T21:17:39.584Z,87.84
2023-05-21T21:19:11.872Z,88.03
2023-05-21T21:20:48.288Z,87.90
2023-05-21T21:22:20.398Z,87.66
2023-05-21T21:23:52.543Z,87.45